Time;durP1;ratioP1;P1;durP2;ratioP2;P2;SDS_P1;SDS_P2;PMS_P1;PMS_P2;Temp;Humidity;BMP_temperature;BMP_pressure;BME280_temperature;BME280_humidity;BME280_pressure;Samples;Min_cycle;Max_cycle;Signal;HPM_P1;HPM_P2
2021/07/11 00:02:18;;;;;;;12.27;5.55;;;;;;;;;;5022396;28;20029;-43
2021/07/11 00:04:45;;;;;;;6.50;5.38;;;;;;;;;;5021024;28;20029;-43
2021/07/11 00:07:14;;;;;;;8.77;4.90;;;;;;;;;;5021218;28;20036;-45
2021/07/11 00:09:40;;;;;;;7.53;5.00;;;;;;;;;;5021349;28;20022;-45
2021/07/11 00:12:07;;;;;;;11.38;6.45;;;;;;;;;;5020946;28;20142;-44
2021/07/11 00:14:33;;;;;;;10.52;5.75;;;;;;;;;;5021581;28;20055;-43
2021/07/11 00:16:59;;;;;;;8.48;5.22;;;;;;;;;;5032353;28;20052;-45
2021/07/11 00:19:25;;;;;;;8.05;5.68;;;;;;;;;;5020940;28;20034;-44
2021/07/11 00:21:51;;;;;;;8.30;5.60;;;;;;;;;;5021816;28;20775;-42
2021/07/11 00:24:17;;;;;;;8.10;5.18;;;;;;;;;;5021156;28;20029;-42
2021/07/11 00:26:43;;;;;;;6.93;5.10;;;;;;;;;;5020822;28;20021;-42
2021/07/11 00:29:09;;;;;;;9.32;6.03;;;;;;;;;;5020647;28;20040;-42
2021/07/11 00:31:36;;;;;;;19.83;9.60;;;;;;;;;;5021079;28;20112;-42
2021/07/11 00:34:02;;;;;;;16.15;10.75;;;;;;;;;;5021025;28;20018;-42
2021/07/11 00:36:28;;;;;;;11.38;7.22;;;;;;;;;;5021180;28;20524;-44
2021/07/11 00:38:54;;;;;;;9.38;6.22;;;;;;;;;;5020726;28;20036;-42
2021/07/11 00:41:20;;;;;;;9.75;5.50;;;;;;;;;;5020797;28;20091;-41
2021/07/11 00:43:46;;;;;;;10.15;6.55;;;;;;;;;;5021132;28;20079;-43
2021/07/11 00:46:12;;;;;;;7.35;5.57;;;;;;;;;;5020710;28;20029;-42
2021/07/11 00:48:41;;;;;;;12.48;8.25;;;;;;;;;;5021959;28;20032;-42
2021/07/11 00:51:07;;;;;;;9.90;7.55;;;;;;;;;;5021904;28;20413;-42
2021/07/11 00:53:33;;;;;;;6.95;5.15;;;;;;;;;;5022516;28;20017;-41
2021/07/11 00:55:59;;;;;;;9.73;7.07;;;;;;;;;;5020808;28;20053;-42
2021/07/11 00:58:25;;;;;;;13.60;6.25;;;;;;;;;;5021028;28;20033;-43
2021/07/11 01:00:54;;;;;;;10.60;5.68;;;;;;;;;;5020692;28;20052;-41
2021/07/11 01:03:31;;;;;;;15.38;5.90;;;;;;;;;;5021690;28;20080;-42
2021/07/11 01:05:57;;;;;;;8.70;4.88;;;;;;;;;;5020893;28;20029;-43
2021/07/11 01:08:30;;;;;;;9.07;5.70;;;;;;;;;;5020659;28;20028;-42
2021/07/11 01:10:59;;;;;;;6.97;4.72;;;;;;;;;;5021771;28;20158;-42
2021/07/11 01:13:26;;;;;;;8.35;5.68;;;;;;;;;;5020935;28;20172;-42
2021/07/11 01:15:53;;;;;;;11.70;5.40;;;;;;;;;;5020243;28;20060;-43
2021/07/11 01:18:20;;;;;;;9.02;6.00;;;;;;;;;;5022924;28;20037;-42
2021/07/11 01:20:46;;;;;;;6.68;5.32;;;;;;;;;;5024119;28;20056;-42
2021/07/11 01:23:42;;;;;;;6.97;4.53;;;;;;;;;;5023904;28;20114;-42
2021/07/11 01:26:09;;;;;;;14.52;7.38;;;;;;;;;;5002458;28;20042;-42
2021/07/11 01:28:35;;;;;;;8.98;5.57;;;;;;;;;;5002309;28;20022;-43
2021/07/11 01:31:02;;;;;;;15.30;8.25;;;;;;;;;;5001941;28;20038;-42
2021/07/11 01:33:29;;;;;;;6.47;5.30;;;;;;;;;;5002513;28;20207;-43
2021/07/11 01:35:56;;;;;;;9.90;5.13;;;;;;;;;;5002247;28;20102;-43
2021/07/11 01:38:23;;;;;;;10.95;4.95;;;;;;;;;;5003518;28;20497;-41
2021/07/11 01:40:49;;;;;;;8.60;5.18;;;;;;;;;;5002240;28;20117;-44
2021/07/11 01:43:20;;;;;;;7.57;5.10;;;;;;;;;;4985867;28;20453;-44
2021/07/11 01:45:47;;;;;;;9.23;5.13;;;;;;;;;;5002228;28;20029;-44
2021/07/11 01:48:14;;;;;;;8.55;4.80;;;;;;;;;;5002198;28;20173;-43
2021/07/11 01:50:40;;;;;;;10.63;4.97;;;;;;;;;;5002024;28;20195;-44
2021/07/11 01:53:06;;;;;;;8.25;5.88;;;;;;;;;;5001965;28;20033;-43
2021/07/11 01:55:33;;;;;;;8.50;6.05;;;;;;;;;;5001822;28;20034;-42
2021/07/11 01:57:59;;;;;;;12.20;5.43;;;;;;;;;;5001848;28;20806;-43
2021/07/11 02:00:25;;;;;;;14.10;6.25;;;;;;;;;;5001628;28;20030;-44
2021/07/11 02:02:52;;;;;;;9.90;5.95;;;;;;;;;;5014975;28;20068;-43
2021/07/11 02:05:18;;;;;;;10.23;5.35;;;;;;;;;;5023268;28;20366;-44
2021/07/11 02:07:45;;;;;;;10.18;5.63;;;;;;;;;;5023155;28;20355;-44
2021/07/11 02:10:12;;;;;;;7.38;5.03;;;;;;;;;;5024349;28;20398;-43
2021/07/11 02:12:44;;;;;;;6.68;5.35;;;;;;;;;;5023245;28;20021;-44
2021/07/11 02:15:10;;;;;;;9.27;4.90;;;;;;;;;;5023100;28;20058;-43
2021/07/11 02:17:39;;;;;;;6.78;5.20;;;;;;;;;;5023312;28;20128;-43
2021/07/11 02:20:06;;;;;;;11.38;5.70;;;;;;;;;;5023800;28;20029;-42
2021/07/11 02:22:33;;;;;;;9.07;5.50;;;;;;;;;;5024275;28;20134;-42
2021/07/11 02:25:00;;;;;;;9.90;5.13;;;;;;;;;;5022994;28;20021;-44
2021/07/11 02:27:26;;;;;;;6.63;5.25;;;;;;;;;;5022903;28;20032;-44
2021/07/11 02:29:56;;;;;;;7.93;5.57;;;;;;;;;;5021894;28;20025;-43
2021/07/11 02:32:24;;;;;;;9.85;5.38;;;;;;;;;;5022601;28;20022;-44
2021/07/11 02:34:50;;;;;;;12.07;5.75;;;;;;;;;;5023432;28;20375;-43
2021/07/11 02:37:20;;;;;;;11.02;5.88;;;;;;;;;;5023815;28;20021;-43
2021/07/11 02:39:49;;;;;;;9.52;5.35;;;;;;;;;;5022713;28;20026;-44
2021/07/11 02:42:15;;;;;;;11.10;6.05;;;;;;;;;;5022661;28;20146;-43
2021/07/11 02:44:44;;;;;;;10.13;5.60;;;;;;;;;;5022556;28;20033;-45
2021/07/11 02:47:12;;;;;;;7.57;6.10;;;;;;;;;;5023276;28;20029;-40
2021/07/11 02:49:39;;;;;;;7.03;6.32;;;;;;;;;;5022696;28;20025;-43
2021/07/11 02:52:06;;;;;;;7.25;5.70;;;;;;;;;;5022338;28;20025;-43
2021/07/11 02:54:35;;;;;;;10.20;6.18;;;;;;;;;;5022372;28;20025;-43
2021/07/11 02:57:02;;;;;;;8.90;5.72;;;;;;;;;;5022500;28;20041;-43
2021/07/11 02:59:29;;;;;;;7.60;5.90;;;;;;;;;;5023721;28;20183;-42
2021/07/11 03:01:55;;;;;;;11.65;6.38;;;;;;;;;;5022333;28;20034;-43
2021/07/11 03:04:22;;;;;;;8.95;6.53;;;;;;;;;;5051375;28;20020;-42
2021/07/11 03:06:48;;;;;;;11.55;6.55;;;;;;;;;;5074076;28;20025;-43
2021/07/11 03:09:14;;;;;;;14.80;6.95;;;;;;;;;;5074153;28;20016;-45
2021/07/11 03:11:41;;;;;;;9.77;6.55;;;;;;;;;;5073997;28;20492;-43
2021/07/11 03:14:09;;;;;;;12.02;7.75;;;;;;;;;;5073788;28;20090;-43
2021/07/11 03:16:36;;;;;;;11.75;7.40;;;;;;;;;;5074037;28;20028;-44
2021/07/11 03:19:02;;;;;;;7.43;5.95;;;;;;;;;;5073839;28;20028;-44
2021/07/11 03:21:29;;;;;;;10.90;6.53;;;;;;;;;;5073703;28;20481;-44
2021/07/11 03:23:56;;;;;;;6.72;6.03;;;;;;;;;;5072539;28;20435;-44
2021/07/11 03:26:23;;;;;;;9.93;7.85;;;;;;;;;;5073922;28;20153;-44
2021/07/11 03:28:49;;;;;;;12.57;9.00;;;;;;;;;;5073774;28;20031;-43
2021/07/11 03:31:16;;;;;;;12.38;6.63;;;;;;;;;;5073770;28;20020;-42
2021/07/11 03:33:50;;;;;;;14.80;10.77;;;;;;;;;;5073856;28;20031;-42
2021/07/11 03:36:17;;;;;;;11.05;8.32;;;;;;;;;;5073861;28;20457;-43
2021/07/11 03:38:45;;;;;;;10.57;7.97;;;;;;;;;;5073734;28;20020;-42
2021/07/11 03:41:13;;;;;;;11.18;7.78;;;;;;;;;;5073391;28;20075;-43
2021/07/11 03:43:43;;;;;;;12.73;7.65;;;;;;;;;;5073584;28;20119;-43
2021/07/11 03:46:10;;;;;;;12.95;8.55;;;;;;;;;;5073248;28;20460;-42
2021/07/11 03:48:41;;;;;;;16.08;10.68;;;;;;;;;;5073542;28;20031;-42
2021/07/11 03:51:08;;;;;;;12.02;7.38;;;;;;;;;;5073522;28;20025;-42
2021/07/11 03:53:36;;;;;;;13.73;10.38;;;;;;;;;;5073595;28;20384;-43
2021/07/11 03:56:02;;;;;;;10.32;8.40;;;;;;;;;;5073389;28;20016;-43
2021/07/11 03:58:30;;;;;;;14.45;8.80;;;;;;;;;;5073358;28;20055;-43
2021/07/11 04:00:57;;;;;;;12.70;8.38;;;;;;;;;;5073367;28;20055;-43
2021/07/11 04:03:25;;;;;;;10.63;7.70;;;;;;;;;;5073262;28;20068;-43
2021/07/11 04:05:51;;;;;;;8.35;7.20;;;;;;;;;;5073330;28;20025;-43
2021/07/11 04:08:18;;;;;;;11.88;7.20;;;;;;;;;;5073475;28;20024;-43
2021/07/11 04:10:45;;;;;;;10.80;7.05;;;;;;;;;;5073335;28;20036;-43
2021/07/11 04:13:13;;;;;;;9.88;7.22;;;;;;;;;;5073256;28;20094;-43
2021/07/11 04:15:39;;;;;;;11.38;7.03;;;;;;;;;;5072926;28;20048;-43
2021/07/11 04:18:11;;;;;;;12.57;8.15;;;;;;;;;;5073354;28;20025;-43
2021/07/11 04:20:39;;;;;;;11.45;7.57;;;;;;;;;;5073114;28;20078;-43
2021/07/11 04:23:06;;;;;;;14.38;7.63;;;;;;;;;;5073048;28;20033;-43
2021/07/11 04:25:33;;;;;;;11.32;8.15;;;;;;;;;;5073123;28;20024;-43
2021/07/11 04:28:00;;;;;;;13.70;8.27;;;;;;;;;;5073187;28;20473;-42
2021/07/11 04:30:27;;;;;;;11.57;7.60;;;;;;;;;;5072984;28;20029;-42
2021/07/11 04:32:53;;;;;;;11.27;7.53;;;;;;;;;;5073239;28;20025;-42
2021/07/11 04:35:19;;;;;;;11.65;7.80;;;;;;;;;;5073199;28;20035;-43
2021/07/11 04:37:45;;;;;;;11.85;7.43;;;;;;;;;;5073197;28;20025;-43
2021/07/11 04:40:16;;;;;;;12.48;8.27;;;;;;;;;;5072999;28;20025;-43
2021/07/11 04:42:44;;;;;;;9.43;7.32;;;;;;;;;;5072991;28;20033;-42
2021/07/11 04:45:10;;;;;;;12.70;8.50;;;;;;;;;;5072646;28;20025;-42
2021/07/11 04:47:36;;;;;;;11.35;8.00;;;;;;;;;;5073122;28;20025;-43
2021/07/11 04:50:03;;;;;;;15.20;8.07;;;;;;;;;;5072915;28;20021;-43
2021/07/11 04:52:31;;;;;;;12.70;7.82;;;;;;;;;;5074011;28;20024;-43
2021/07/11 04:54:57;;;;;;;12.65;7.18;;;;;;;;;;5076803;28;20031;-43
2021/07/11 04:57:23;;;;;;;9.25;7.40;;;;;;;;;;5076786;28;20020;-43
2021/07/11 04:59:49;;;;;;;9.60;6.95;;;;;;;;;;5076585;28;20035;-43
2021/07/11 05:02:15;;;;;;;8.93;7.45;;;;;;;;;;5076420;28;20082;-43
2021/07/11 05:04:42;;;;;;;12.10;7.95;;;;;;;;;;5076381;28;20033;-43
2021/07/11 05:07:08;;;;;;;12.30;7.38;;;;;;;;;;5075252;28;20021;-42
2021/07/11 05:09:34;;;;;;;10.27;7.57;;;;;;;;;;5076888;28;20036;-43
2021/07/11 05:12:00;;;;;;;8.50;7.30;;;;;;;;;;5076463;28;20024;-42
2021/07/11 05:14:26;;;;;;;11.50;7.88;;;;;;;;;;5076089;28;20043;-42
2021/07/11 05:16:52;;;;;;;11.05;7.20;;;;;;;;;;5076352;28;20028;-43
2021/07/11 05:19:18;;;;;;;12.55;7.32;;;;;;;;;;5076527;28;20029;-42
2021/07/11 05:21:44;;;;;;;10.48;6.50;;;;;;;;;;5076238;28;20476;-43
2021/07/11 05:24:10;;;;;;;10.57;7.00;;;;;;;;;;5076492;28;20032;-43
2021/07/11 05:26:36;;;;;;;11.55;7.65;;;;;;;;;;5076171;28;20017;-43
2021/07/11 05:29:03;;;;;;;16.23;7.60;;;;;;;;;;5075987;28;20025;-42
2021/07/11 05:31:29;;;;;;;12.05;7.05;;;;;;;;;;5076343;28;20027;-43
2021/07/11 05:33:55;;;;;;;12.10;8.18;;;;;;;;;;5075958;28;20029;-43
2021/07/11 05:36:21;;;;;;;9.65;7.22;;;;;;;;;;5075984;28;20475;-43
2021/07/11 05:38:47;;;;;;;9.25;7.22;;;;;;;;;;5075946;28;20081;-43
2021/07/11 05:41:13;;;;;;;9.18;7.00;;;;;;;;;;5075784;28;20028;-43
2021/07/11 05:43:39;;;;;;;11.35;6.43;;;;;;;;;;5075791;28;20032;-43
2021/07/11 05:46:05;;;;;;;10.70;6.32;;;;;;;;;;5075524;28;20376;-43
2021/07/11 05:48:32;;;;;;;16.05;9.73;;;;;;;;;;5075923;28;20040;-43
2021/07/11 05:50:58;;;;;;;18.15;10.60;;;;;;;;;;5075572;28;20023;-43
2021/07/11 05:53:24;;;;;;;28.92;13.65;;;;;;;;;;5075618;28;20036;-43
2021/07/11 05:55:50;;;;;;;14.50;8.93;;;;;;;;;;5075668;28;20024;-42
2021/07/11 05:58:16;;;;;;;14.35;7.65;;;;;;;;;;5075796;28;20020;-43
2021/07/11 06:00:42;;;;;;;13.23;5.55;;;;;;;;;;5075496;28;20055;-43
2021/07/11 06:03:08;;;;;;;11.55;6.25;;;;;;;;;;5075434;28;20048;-44
2021/07/11 06:05:37;;;;;;;17.88;7.35;;;;;;;;;;5075241;28;20020;-42
2021/07/11 06:08:06;;;;;;;9.48;5.53;;;;;;;;;;5075263;28;20031;-43
2021/07/11 06:10:32;;;;;;;11.35;5.90;;;;;;;;;;5075304;28;20029;-43
2021/07/11 06:12:58;;;;;;;7.03;4.78;;;;;;;;;;5075257;28;20476;-43
2021/07/11 06:15:24;;;;;;;5.28;4.78;;;;;;;;;;5074876;28;20102;-42
2021/07/11 06:17:50;;;;;;;7.88;4.80;;;;;;;;;;5075124;28;20118;-43
2021/07/11 06:20:17;;;;;;;5.75;4.18;;;;;;;;;;5075200;28;20021;-43
2021/07/11 06:22:43;;;;;;;6.10;5.22;;;;;;;;;;5074815;28;20052;-43
2021/07/11 06:25:10;;;;;;;10.20;4.28;;;;;;;;;;5075210;28;20062;-43
2021/07/11 06:27:37;;;;;;;8.75;4.43;;;;;;;;;;5075069;28;20476;-43
2021/07/11 06:30:09;;;;;;;10.43;4.55;;;;;;;;;;5074811;28;20036;-42
2021/07/11 06:32:35;;;;;;;10.02;4.20;;;;;;;;;;5075262;28;20020;-42
2021/07/11 06:35:01;;;;;;;10.07;4.22;;;;;;;;;;5074790;28;20031;-42
2021/07/11 06:37:27;;;;;;;6.07;4.20;;;;;;;;;;5074794;28;20025;-42
2021/07/11 06:39:53;;;;;;;5.78;4.03;;;;;;;;;;5074731;28;20017;-42
2021/07/11 06:42:19;;;;;;;4.97;4.03;;;;;;;;;;5074582;28;20397;-42
2021/07/11 06:44:45;;;;;;;4.35;3.72;;;;;;;;;;5074644;28;20019;-42
2021/07/11 06:47:11;;;;;;;6.60;3.33;;;;;;;;;;5074481;28;20039;-42
2021/07/11 06:49:37;;;;;;;4.38;3.50;;;;;;;;;;5074601;28;20020;-42
2021/07/11 06:52:04;;;;;;;8.32;4.00;;;;;;;;;;5074617;28;20473;-43
2021/07/11 06:54:30;;;;;;;6.75;3.70;;;;;;;;;;5074566;28;20029;-43
2021/07/11 06:56:56;;;;;;;8.43;4.15;;;;;;;;;;5074317;28;20021;-43
2021/07/11 06:59:22;;;;;;;4.57;3.60;;;;;;;;;;5074349;28;20427;-42
2021/07/11 07:01:48;;;;;;;7.85;3.65;;;;;;;;;;5074195;28;20029;-43
2021/07/11 07:04:14;;;;;;;9.63;3.65;;;;;;;;;;5074233;28;20028;-43
2021/07/11 07:06:41;;;;;;;10.32;3.95;;;;;;;;;;5074200;28;20040;-43
2021/07/11 07:09:07;;;;;;;7.63;3.55;;;;;;;;;;5074031;28;20484;-43
2021/07/11 07:11:33;;;;;;;7.00;3.72;;;;;;;;;;5074100;28;20381;-43
2021/07/11 07:13:59;;;;;;;7.72;3.55;;;;;;;;;;5073912;28;20027;-43
2021/07/11 07:16:25;;;;;;;10.05;3.10;;;;;;;;;;5073198;28;20090;-42
2021/07/11 07:18:51;;;;;;;8.45;3.30;;;;;;;;;;5074152;28;20020;-43
2021/07/11 07:21:17;;;;;;;6.68;2.72;;;;;;;;;;5074114;28;20020;-42
2021/07/11 07:23:44;;;;;;;4.85;3.00;;;;;;;;;;5074118;28;20043;-43
2021/07/11 07:26:10;;;;;;;7.13;3.28;;;;;;;;;;5073955;28;20017;-44
2021/07/11 07:28:38;;;;;;;11.30;3.25;;;;;;;;;;5073806;28;20029;-42
2021/07/11 07:31:05;;;;;;;8.00;2.63;;;;;;;;;;5073766;28;20138;-43
2021/07/11 07:33:31;;;;;;;9.85;3.10;;;;;;;;;;5071921;28;20024;-41
2021/07/11 07:35:57;;;;;;;17.00;2.67;;;;;;;;;;5052408;28;20029;-41
2021/07/11 07:38:23;;;;;;;6.15;2.97;;;;;;;;;;5052058;28;20105;-42
2021/07/11 07:40:49;;;;;;;4.63;3.00;;;;;;;;;;5052808;28;20035;-41
2021/07/11 07:43:16;;;;;;;4.35;2.92;;;;;;;;;;5053077;28;20043;-41
2021/07/11 07:45:45;;;;;;;6.85;3.08;;;;;;;;;;5052658;28;20028;-42
2021/07/11 07:48:12;;;;;;;8.60;2.58;;;;;;;;;;5052075;28;20040;-42
2021/07/11 07:50:38;;;;;;;9.30;2.85;;;;;;;;;;5051967;28;20071;-41
2021/07/11 07:53:06;;;;;;;8.32;2.78;;;;;;;;;;5051862;28;20025;-40
2021/07/11 07:55:33;;;;;;;11.63;3.35;;;;;;;;;;5051909;28;20108;-41
2021/07/11 07:58:00;;;;;;;8.88;2.70;;;;;;;;;;5051852;28;20025;-45
2021/07/11 08:00:27;;;;;;;10.82;3.03;;;;;;;;;;5051686;28;20009;-42
2021/07/11 08:02:53;;;;;;;9.10;2.50;;;;;;;;;;5051922;28;20459;-41
2021/07/11 08:05:19;;;;;;;5.18;2.53;;;;;;;;;;5051808;28;20028;-44
2021/07/11 08:07:45;;;;;;;5.07;2.75;;;;;;;;;;5051755;28;20037;-41
2021/07/11 08:10:12;;;;;;;5.53;2.83;;;;;;;;;;5051945;28;20025;-41
2021/07/11 08:12:38;;;;;;;7.63;3.10;;;;;;;;;;5051725;28;20017;-41
2021/07/11 08:15:06;;;;;;;9.20;2.55;;;;;;;;;;5051408;28;20041;-41
2021/07/11 08:17:32;;;;;;;6.43;2.90;;;;;;;;;;5052443;28;20050;-42
2021/07/11 08:19:59;;;;;;;6.15;2.80;;;;;;;;;;5053003;28;20497;-42
2021/07/11 08:22:25;;;;;;;8.98;2.45;;;;;;;;;;5052874;28;20029;-43
2021/07/11 08:24:52;;;;;;;6.05;2.53;;;;;;;;;;5052895;28;20432;-43
2021/07/11 08:27:18;;;;;;;6.05;2.60;;;;;;;;;;5053354;28;20378;-42
2021/07/11 08:29:44;;;;;;;12.00;2.58;;;;;;;;;;5055694;28;20033;-42
2021/07/11 08:32:10;;;;;;;8.77;2.80;;;;;;;;;;5055355;28;20025;-41
2021/07/11 08:34:36;;;;;;;5.22;2.70;;;;;;;;;;5055574;28;20021;-41
2021/07/11 08:37:03;;;;;;;6.85;3.50;;;;;;;;;;5055537;28;20021;-43
2021/07/11 08:39:29;;;;;;;5.80;2.88;;;;;;;;;;5055596;28;20065;-42
2021/07/11 08:41:59;;;;;;;9.88;3.17;;;;;;;;;;5055498;28;20477;-42
2021/07/11 08:44:26;;;;;;;5.28;2.60;;;;;;;;;;5052964;28;20028;-42
2021/07/11 08:46:52;;;;;;;10.05;2.60;;;;;;;;;;5055659;28;20366;-42
2021/07/11 08:49:19;;;;;;;8.50;3.03;;;;;;;;;;5055282;28;20036;-43
2021/07/11 08:51:46;;;;;;;9.15;3.90;;;;;;;;;;5055098;28;20025;-44
2021/07/11 08:54:15;;;;;;;9.00;3.38;;;;;;;;;;5055027;28;20104;-42
2021/07/11 08:56:41;;;;;;;8.18;4.50;;;;;;;;;;5054565;28;20020;-41
2021/07/11 08:59:07;;;;;;;8.95;3.45;;;;;;;;;;5054622;28;20102;-41
2021/07/11 09:01:33;;;;;;;5.18;3.25;;;;;;;;;;5053249;28;20604;-42
2021/07/11 09:03:59;;;;;;;9.68;2.55;;;;;;;;;;5053368;28;20071;-42
2021/07/11 09:06:25;;;;;;;12.95;3.05;;;;;;;;;;5053686;28;20036;-43
2021/07/11 09:08:56;;;;;;;3.88;2.53;;;;;;;;;;5051032;28;20404;-44
2021/07/11 09:11:22;;;;;;;12.23;5.20;;;;;;;;;;5036379;28;20022;-41
2021/07/11 09:13:51;;;;;;;9.57;3.83;;;;;;;;;;5035971;28;20051;-42
2021/07/11 09:16:17;;;;;;;3.65;2.20;;;;;;;;;;5036130;28;20076;-43
2021/07/11 09:18:43;;;;;;;5.07;2.10;;;;;;;;;;5036251;28;20041;-44
2021/07/11 09:21:11;;;;;;;10.48;2.50;;;;;;;;;;5036252;28;20021;-47
2021/07/11 09:23:38;;;;;;;6.30;2.38;;;;;;;;;;5035961;28;20026;-47
2021/07/11 09:26:12;;;;;;;7.53;2.45;;;;;;;;;;5036071;28;20036;-48
2021/07/11 09:28:39;;;;;;;9.18;2.63;;;;;;;;;;5035966;28;20108;-47
2021/07/11 09:31:12;;;;;;;6.45;2.13;;;;;;;;;;5035904;28;20076;-48
2021/07/11 09:33:40;;;;;;;3.05;2.05;;;;;;;;;;5034766;28;20048;-46
2021/07/11 09:36:12;;;;;;;7.78;2.10;;;;;;;;;;5034626;28;20499;-44
2021/07/11 09:38:38;;;;;;;4.05;2.40;;;;;;;;;;5027266;28;20047;-45
2021/07/11 09:41:22;;;;;;;5.13;1.92;;;;;;;;;;5023671;28;20031;-45
2021/07/11 09:43:48;;;;;;;4.63;2.40;;;;;;;;;;5034092;28;20037;-45
2021/07/11 09:46:15;;;;;;;5.55;2.50;;;;;;;;;;5023501;28;20029;-45
2021/07/11 09:48:41;;;;;;;7.63;2.28;;;;;;;;;;5023657;28;20029;-45
2021/07/11 09:51:13;;;;;;;9.65;2.30;;;;;;;;;;5023444;28;20105;-44
2021/07/11 09:53:39;;;;;;;2.47;2.00;;;;;;;;;;5024292;28;20048;-45
2021/07/11 09:56:05;;;;;;;10.18;2.83;;;;;;;;;;5023620;28;20132;-44
2021/07/11 09:58:33;;;;;;;8.18;2.58;;;;;;;;;;5023786;28;20051;-44
2021/07/11 10:00:59;;;;;;;5.40;2.55;;;;;;;;;;5023453;28;20021;-44
2021/07/11 10:03:25;;;;;;;4.20;2.30;;;;;;;;;;5023406;28;20685;-44
2021/07/11 10:05:51;;;;;;;7.57;3.38;;;;;;;;;;5023335;28;20030;-45
2021/07/11 10:08:17;;;;;;;7.43;2.70;;;;;;;;;;5022946;28;20798;-44
2021/07/11 10:10:43;;;;;;;4.95;2.92;;;;;;;;;;5022634;28;20029;-45
2021/07/11 10:13:10;;;;;;;5.70;2.60;;;;;;;;;;5024253;28;20025;-44
2021/07/11 10:15:38;;;;;;;6.68;2.80;;;;;;;;;;5022897;28;20045;-44
2021/07/11 10:18:08;;;;;;;7.70;2.95;;;;;;;;;;5023210;28;20052;-44
2021/07/11 10:20:34;;;;;;;11.48;3.42;;;;;;;;;;5022943;28;20021;-44
2021/07/11 10:23:01;;;;;;;4.18;2.78;;;;;;;;;;5023544;28;20041;-44
2021/07/11 10:25:28;;;;;;;16.25;3.10;;;;;;;;;;5024076;28;20017;-45
2021/07/11 10:28:14;;;;;;;5.97;2.60;;;;;;;;;;5022875;28;20021;-44
2021/07/11 10:30:41;;;;;;;7.68;2.67;;;;;;;;;;5024251;28;20017;-44
2021/07/11 10:33:11;;;;;;;5.00;2.67;;;;;;;;;;5022765;28;20032;-44
2021/07/11 10:35:48;;;;;;;13.40;2.50;;;;;;;;;;5022873;28;20415;-43
2021/07/11 10:38:25;;;;;;;6.07;2.88;;;;;;;;;;5023162;28;20025;-45
2021/07/11 10:40:52;;;;;;;3.47;2.80;;;;;;;;;;5023698;28;20033;-44
2021/07/11 10:43:18;;;;;;;4.10;3.00;;;;;;;;;;5022503;28;20037;-43
2021/07/11 10:45:45;;;;;;;7.65;3.30;;;;;;;;;;5022555;28;20087;-41
2021/07/11 10:48:12;;;;;;;4.85;2.70;;;;;;;;;;5022541;28;20037;-45
2021/07/11 10:50:41;;;;;;;5.15;2.83;;;;;;;;;;5021450;28;20032;-43
2021/07/11 10:53:15;;;;;;;8.82;3.08;;;;;;;;;;5023058;28;20239;-46
2021/07/11 10:55:43;;;;;;;5.55;3.40;;;;;;;;;;5027666;28;20073;-43
2021/07/11 10:58:19;;;;;;;7.32;2.97;;;;;;;;;;5028179;28;20083;-42
2021/07/11 11:00:47;;;;;;;4.97;2.97;;;;;;;;;;5027785;28;20096;-42
2021/07/11 11:03:19;;;;;;;10.10;2.95;;;;;;;;;;5026887;28;20037;-41
2021/07/11 11:05:46;;;;;;;5.72;3.30;;;;;;;;;;5026894;28;20028;-42
2021/07/11 11:08:13;;;;;;;6.32;3.15;;;;;;;;;;5027497;28;20052;-42
2021/07/11 11:10:41;;;;;;;3.30;2.80;;;;;;;;;;5027267;28;20045;-43
2021/07/11 11:13:25;;;;;;;7.70;3.00;;;;;;;;;;5026826;28;20029;-42
2021/07/11 11:15:51;;;;;;;13.15;3.08;;;;;;;;;;5027606;28;20067;-42
2021/07/11 11:18:23;;;;;;;6.60;2.60;;;;;;;;;;5027264;28;20110;-42
2021/07/11 11:21:08;;;;;;;6.90;2.83;;;;;;;;;;5026688;28;20775;-42
2021/07/11 11:23:38;;;;;;;10.77;2.80;;;;;;;;;;5027197;28;20036;-43
2021/07/11 11:26:05;;;;;;;11.40;2.78;;;;;;;;;;5027551;28;20112;-45
2021/07/11 11:28:31;;;;;;;5.65;3.08;;;;;;;;;;5027267;28;20774;-44
2021/07/11 11:31:06;;;;;;;4.85;2.72;;;;;;;;;;5027981;28;20029;-43
2021/07/11 11:33:36;;;;;;;7.22;2.67;;;;;;;;;;5029165;28;20112;-45
2021/07/11 11:36:03;;;;;;;4.18;2.70;;;;;;;;;;5026919;28;20021;-42
2021/07/11 11:38:36;;;;;;;4.15;2.42;;;;;;;;;;5025654;28;20789;-43
2021/07/11 11:41:10;;;;;;;5.60;2.47;;;;;;;;;;5025559;28;20119;-45
2021/07/11 11:43:36;;;;;;;7.45;2.88;;;;;;;;;;5021815;28;20084;-43
2021/07/11 11:46:02;;;;;;;4.53;2.40;;;;;;;;;;5021387;28;20072;-46
2021/07/11 11:48:30;;;;;;;4.68;2.35;;;;;;;;;;5025405;28;20048;-42
2021/07/11 11:51:01;;;;;;;9.05;3.53;;;;;;;;;;5028418;28;20087;-46
2021/07/11 11:53:27;;;;;;;8.90;3.50;;;;;;;;;;5026822;28;20406;-43
2021/07/11 11:55:55;;;;;;;3.97;2.65;;;;;;;;;;5028365;28;20021;-47
2021/07/11 11:58:28;;;;;;;4.60;2.22;;;;;;;;;;5027038;28;20037;-44
2021/07/11 12:01:04;;;;;;;3.90;2.70;;;;;;;;;;5028869;28;20390;-44
2021/07/11 12:03:30;;;;;;;8.40;2.50;;;;;;;;;;5027350;28;20114;-44
2021/07/11 12:06:00;;;;;;;6.00;2.50;;;;;;;;;;5026943;28;20032;-44
2021/07/11 12:08:32;;;;;;;3.90;2.50;;;;;;;;;;5030377;28;20400;-42
2021/07/11 12:10:59;;;;;;;6.22;2.38;;;;;;;;;;5027995;28;20120;-43
2021/07/11 12:13:26;;;;;;;4.65;2.40;;;;;;;;;;5026250;28;20029;-43
2021/07/11 12:16:12;;;;;;;2.88;2.45;;;;;;;;;;5026359;28;20041;-42
2021/07/11 12:18:45;;;;;;;4.70;3.30;;;;;;;;;;5026023;28;20030;-44
2021/07/11 12:21:11;;;;;;;5.53;2.75;;;;;;;;;;5025442;28;20032;-43
2021/07/11 12:23:38;;;;;;;7.63;2.78;;;;;;;;;;5028031;28;20083;-44
2021/07/11 12:26:06;;;;;;;11.65;2.50;;;;;;;;;;5026673;28;20044;-43
2021/07/11 12:28:34;;;;;;;6.15;2.75;;;;;;;;;;5026841;28;20116;-46
2021/07/11 12:31:00;;;;;;;4.38;2.63;;;;;;;;;;5025855;28;20234;-44
2021/07/11 12:33:34;;;;;;;5.82;2.55;;;;;;;;;;5028244;28;20481;-44
2021/07/11 12:36:04;;;;;;;2.33;2.13;;;;;;;;;;5026077;28;20033;-46
2021/07/11 12:38:31;;;;;;;3.60;2.55;;;;;;;;;;5027562;28;20486;-44
2021/07/11 12:40:58;;;;;;;4.18;2.97;;;;;;;;;;5028066;28;20029;-44
2021/07/11 12:43:31;;;;;;;10.85;2.95;;;;;;;;;;5025690;28;20033;-44
2021/07/11 12:46:00;;;;;;;4.70;2.35;;;;;;;;;;5024088;28;20370;-44
2021/07/11 12:48:35;;;;;;;6.88;2.50;;;;;;;;;;5020835;28;20068;-46
2021/07/11 12:51:11;;;;;;;8.82;2.33;;;;;;;;;;5021639;28;20083;-43
2021/07/11 12:53:37;;;;;;;5.03;2.10;;;;;;;;;;5022996;28;20128;-45
2021/07/11 12:56:04;;;;;;;5.97;2.08;;;;;;;;;;5022511;28;20649;-47
2021/07/11 12:58:37;;;;;;;6.75;2.13;;;;;;;;;;5024884;28;20025;-45
2021/07/11 13:01:06;;;;;;;4.20;2.35;;;;;;;;;;5022466;28;20082;-47
2021/07/11 13:03:32;;;;;;;6.50;2.08;;;;;;;;;;5023195;28;20044;-44
2021/07/11 13:05:59;;;;;;;7.25;2.42;;;;;;;;;;5022011;28;20480;-46
2021/07/11 13:08:26;;;;;;;7.47;1.80;;;;;;;;;;5020595;28;20037;-46
2021/07/11 13:10:52;;;;;;;4.70;1.75;;;;;;;;;;5020790;28;20026;-43
2021/07/11 13:13:19;;;;;;;8.65;2.20;;;;;;;;;;5021294;28;20413;-44
2021/07/11 13:15:45;;;;;;;4.65;2.15;;;;;;;;;;5023930;28;20057;-45
2021/07/11 13:18:11;;;;;;;6.75;2.60;;;;;;;;;;5024965;28;20075;-44
2021/07/11 13:20:38;;;;;;;5.45;2.10;;;;;;;;;;5024427;28;20033;-46
2021/07/11 13:23:04;;;;;;;3.85;1.90;;;;;;;;;;5023970;28;20148;-44
2021/07/11 13:25:30;;;;;;;5.25;2.00;;;;;;;;;;5024469;28;20022;-45
2021/07/11 13:27:57;;;;;;;3.08;1.77;;;;;;;;;;5024070;28;20393;-42
2021/07/11 13:30:29;;;;;;;5.13;1.98;;;;;;;;;;5024326;28;20022;-43
2021/07/11 13:32:56;;;;;;;3.20;2.00;;;;;;;;;;5025444;28;20021;-45
2021/07/11 13:35:23;;;;;;;6.68;2.10;;;;;;;;;;5023898;28;20120;-44
2021/07/11 13:37:50;;;;;;;2.70;2.05;;;;;;;;;;5023810;28;20076;-47
2021/07/11 13:40:17;;;;;;;6.95;1.88;;;;;;;;;;5023824;28;20033;-45
2021/07/11 13:42:43;;;;;;;5.10;1.92;;;;;;;;;;5023894;28;20335;-44
2021/07/11 13:45:11;;;;;;;4.32;1.83;;;;;;;;;;5023573;28;20040;-46
2021/07/11 13:47:37;;;;;;;2.60;1.67;;;;;;;;;;5023934;28;20084;-44
2021/07/11 13:50:08;;;;;;;3.10;1.88;;;;;;;;;;5024845;28;20115;-42
2021/07/11 13:52:34;;;;;;;7.25;4.25;;;;;;;;;;5023599;28;20121;-43
2021/07/11 13:55:00;;;;;;;6.50;2.08;;;;;;;;;;5023561;28;20026;-44
2021/07/11 13:57:26;;;;;;;4.72;1.90;;;;;;;;;;5023438;28;20021;-42
2021/07/11 13:59:52;;;;;;;3.92;2.25;;;;;;;;;;5023361;28;20034;-41
2021/07/11 14:02:25;;;;;;;3.33;1.90;;;;;;;;;;5023233;28;20595;-47
2021/07/11 14:04:51;;;;;;;3.42;2.08;;;;;;;;;;5023466;28;20452;-47
2021/07/11 14:07:17;;;;;;;2.65;1.90;;;;;;;;;;5023493;28;20132;-41
2021/07/11 14:09:47;;;;;;;3.65;2.10;;;;;;;;;;5023042;28;20520;-42
2021/07/11 14:12:13;;;;;;;2.45;1.95;;;;;;;;;;5023186;28;20132;-47
2021/07/11 14:14:39;;;;;;;10.73;5.43;;;;;;;;;;5022755;28;20084;-43
2021/07/11 14:17:06;;;;;;;14.40;3.67;;;;;;;;;;5023061;28;20915;-46
2021/07/11 14:19:32;;;;;;;2.20;2.00;;;;;;;;;;5024147;28;20794;-43
2021/07/11 14:21:58;;;;;;;5.28;2.20;;;;;;;;;;5023267;28;20373;-44
2021/07/11 14:24:25;;;;;;;4.88;1.92;;;;;;;;;;5022994;28;20147;-42
2021/07/11 14:26:51;;;;;;;7.15;1.98;;;;;;;;;;5022882;28;20238;-42
2021/07/11 14:29:17;;;;;;;5.88;2.13;;;;;;;;;;5022903;28;20025;-42
2021/07/11 14:31:45;;;;;;;4.20;2.10;;;;;;;;;;5022855;28;20022;-43
2021/07/11 14:34:11;;;;;;;4.45;1.88;;;;;;;;;;5022837;28;20554;-42
2021/07/11 14:36:37;;;;;;;5.05;2.45;;;;;;;;;;5022730;28;20228;-43
2021/07/11 14:39:04;;;;;;;2.65;2.35;;;;;;;;;;5022649;28;20607;-44
2021/07/11 14:41:30;;;;;;;4.88;2.45;;;;;;;;;;5023545;28;20033;-42